sensor_id;sensor_type;location;lat;lon;timestamp;pressure;altitude;pressure_sealevel;temperature;humidity
2397;BME280;1209;48.410;9.054;2023-02-02T00:01:49;96961.09;;;4.74;100.00
2397;BME280;1209;48.410;9.054;2023-02-02T00:04:23;96961.44;;;4.69;100.00
2397;BME280;1209;48.410;9.054;2023-02-02T00:06:49;96950.75;;;4.63;100.00
2397;BME280;1209;48.410;9.054;2023-02-02T00:09:16;96946.03;;;4.68;100.00
2397;BME280;1209;48.410;9.054;2023-02-02T00:11:43;96940.88;;;4.68;100.00
2397;BME280;1209;48.410;9.054;2023-02-02T00:14:09;96929.56;;;4.69;100.00
2397;BME280;1209;48.410;9.054;2023-02-02T00:16:45;96927.22;;;4.66;100.00
2397;BME280;1209;48.410;9.054;2023-02-02T00:19:19;96933.09;;;4.68;100.00
2397;BME280;1209;48.410;9.054;2023-02-02T00:21:45;96937.91;;;4.72;100.00
2397;BME280;1209;48.410;9.054;2023-02-02T00:24:13;96943.69;;;4.65;100.00
2397;BME280;1209;48.410;9.054;2023-02-02T00:26:40;96938.03;;;4.71;100.00
2397;BME280;1209;48.410;9.054;2023-02-02T00:29:07;96940.63;;;4.71;100.00
2397;BME280;1209;48.410;9.054;2023-02-02T00:31:33;96941.81;;;4.67;100.00
2397;BME280;1209;48.410;9.054;2023-02-02T00:33:58;96941.81;;;4.67;100.00
2397;BME280;1209;48.410;9.054;2023-02-02T00:36:24;96944.28;;;4.68;100.00
2397;BME280;1209;48.410;9.054;2023-02-02T00:38:49;96956.13;;;4.71;100.00
2397;BME280;1209;48.410;9.054;2023-02-02T00:41:15;96951.22;;;4.68;100.00
2397;BME280;1209;48.410;9.054;2023-02-02T00:43:42;96949.56;;;4.67;100.00
2397;BME280;1209;48.410;9.054;2023-02-02T00:46:17;96952.16;;;4.67;100.00
2397;BME280;1209;48.410;9.054;2023-02-02T00:48:43;96944.63;;;4.64;100.00
2397;BME280;1209;48.410;9.054;2023-02-02T00:51:08;96939.91;;;4.69;100.00
2397;BME280;1209;48.410;9.054;2023-02-02T00:53:34;96925.34;;;4.68;100.00
2397;BME280;1209;48.410;9.054;2023-02-02T00:55:59;96918.66;;;4.65;100.00
2397;BME280;1209;48.410;9.054;2023-02-02T00:58:25;96931.13;;;4.60;100.00
2397;BME280;1209;48.410;9.054;2023-02-02T01:00:51;96934.28;;;4.64;100.00
2397;BME280;1209;48.410;9.054;2023-02-02T01:03:16;96935.31;;;4.72;100.00
2397;BME280;1209;48.410;9.054;2023-02-02T01:05:41;96935.56;;;4.69;100.00
2397;BME280;1209;48.410;9.054;2023-02-02T01:08:07;96946.97;;;4.67;100.00
2397;BME280;1209;48.410;9.054;2023-02-02T01:10:32;96933.69;;;4.71;100.00
2397;BME280;1209;48.410;9.054;2023-02-02T01:12:58;96937.00;;;4.73;100.00
2397;BME280;1209;48.410;9.054;2023-02-02T01:15:23;96937.09;;;4.72;100.00
2397;BME280;1209;48.410;9.054;2023-02-02T01:17:48;96941.44;;;4.71;100.00
2397;BME280;1209;48.410;9.054;2023-02-02T01:20:16;96937.91;;;4.72;100.00
2397;BME280;1209;48.410;9.054;2023-02-02T01:22:48;96927.09;;;4.67;100.00
2397;BME280;1209;48.410;9.054;2023-02-02T01:25:20;96947.56;;;4.70;100.00
2397;BME280;1209;48.410;9.054;2023-02-02T01:27:46;96949.44;;;4.68;100.00
2397;BME280;1209;48.410;9.054;2023-02-02T01:30:12;96944.28;;;4.68;100.00
2397;BME280;1209;48.410;9.054;2023-02-02T01:32:37;96946.97;;;4.67;100.00
2397;BME280;1209;48.410;9.054;2023-02-02T01:35:03;96947.22;;;4.64;100.00
2397;BME280;1209;48.410;9.054;2023-02-02T01:37:29;96954.88;;;4.65;100.00
2397;BME280;1209;48.410;9.054;2023-02-02T01:39:54;96964.63;;;4.62;100.00
2397;BME280;1209;48.410;9.054;2023-02-02T01:42:21;96961.56;;;4.68;100.00
2397;BME280;1209;48.410;9.054;2023-02-02T01:47:55;96964.50;;;4.63;100.00
2397;BME280;1209;48.410;9.054;2023-02-02T01:50:29;96964.88;;;4.59;100.00
2397;BME280;1209;48.410;9.054;2023-02-02T01:52:57;96961.13;;;4.52;100.00
2397;BME280;1209;48.410;9.054;2023-02-02T01:55:27;96954.66;;;4.57;100.00
2397;BME280;1209;48.410;9.054;2023-02-02T01:58:01;96950.88;;;4.61;100.00
2397;BME280;1209;48.410;9.054;2023-02-02T02:00:28;96955.22;;;4.61;100.00
2397;BME280;1209;48.410;9.054;2023-02-02T02:02:58;96953.13;;;4.55;100.00
2397;BME280;1209;48.410;9.054;2023-02-02T02:05:34;96940.06;;;4.56;100.00
2397;BME280;1209;48.410;9.054;2023-02-02T02:08:23;96936.66;;;4.56;100.00
2397;BME280;1209;48.410;9.054;2023-02-02T02:10:49;96926.56;;;4.53;100.00
2397;BME280;1209;48.410;9.054;2023-02-02T02:13:18;96928.31;;;4.52;100.00
2397;BME280;1209;48.410;9.054;2023-02-02T02:16:09;96914.34;;;4.55;100.00
2397;BME280;1209;48.410;9.054;2023-02-02T02:21:37;96931.94;;;4.61;100.00
2397;BME280;1209;48.410;9.054;2023-02-02T02:24:51;96933.59;;;4.62;100.00
2397;BME280;1209;48.410;9.054;2023-02-02T02:37:29;96934.66;;;4.59;100.00
2397;BME280;1209;48.410;9.054;2023-02-02T02:42:54;96933.09;;;4.68;100.00
2397;BME280;1209;48.410;9.054;2023-02-02T02:45:21;96926.19;;;4.57;100.00
2397;BME280;1209;48.410;9.054;2023-02-02T02:47:49;96923.63;;;4.57;100.00
2397;BME280;1209;48.410;9.054;2023-02-02T02:50:15;96915.03;;;4.57;100.00
2397;BME280;1209;48.410;9.054;2023-02-02T02:52:40;96928.78;;;4.57;100.00
2397;BME280;1209;48.410;9.054;2023-02-02T02:55:08;96915.16;;;4.55;100.00
2397;BME280;1209;48.410;9.054;2023-02-02T02:58:06;96923.84;;;4.54;100.00
2397;BME280;1209;48.410;9.054;2023-02-02T03:00:46;96915.28;;;4.54;100.00
2397;BME280;1209;48.410;9.054;2023-02-02T03:06:06;96938.19;;;4.58;100.00
2397;BME280;1209;48.410;9.054;2023-02-02T03:08:40;96929.03;;;4.54;100.00
2397;BME280;1209;48.410;9.054;2023-02-02T03:11:09;96927.84;;;4.58;100.00
2397;BME280;1209;48.410;9.054;2023-02-02T03:13:36;96928.91;;;4.56;100.00
2397;BME280;1209;48.410;9.054;2023-02-02T03:16:02;96930.56;;;4.57;100.00
2397;BME280;1209;48.410;9.054;2023-02-02T03:18:29;96922.06;;;4.66;100.00
2397;BME280;1209;48.410;9.054;2023-02-02T03:20:55;96932.41;;;4.66;100.00
2397;BME280;1209;48.410;9.054;2023-02-02T03:23:22;96945.09;;;4.69;100.00
2397;BME280;1209;48.410;9.054;2023-02-02T03:25:47;96946.53;;;4.62;100.00
2397;BME280;1209;48.410;9.054;2023-02-02T03:28:13;96926.41;;;4.65;100.00
2397;BME280;1209;48.410;9.054;2023-02-02T03:30:40;96933.34;;;4.65;100.00
2397;BME280;1209;48.410;9.054;2023-02-02T03:33:06;96928.88;;;4.67;100.00
2397;BME280;1209;48.410;9.054;2023-02-02T03:35:32;96939.69;;;4.72;100.00
2397;BME280;1209;48.410;9.054;2023-02-02T03:37:58;96938.97;;;4.70;100.00
2397;BME280;1209;48.410;9.054;2023-02-02T03:40:23;96920.06;;;4.69;100.00
2397;BME280;1209;48.410;9.054;2023-02-02T03:42:50;96924.97;;;4.72;100.00
2397;BME280;1209;48.410;9.054;2023-02-02T03:45:15;96927.69;;;4.71;100.00
2397;BME280;1209;48.410;9.054;2023-02-02T03:47:41;96933.59;;;4.73;100.00
2397;BME280;1209;48.410;9.054;2023-02-02T03:50:07;96931.00;;;4.73;100.00
2397;BME280;1209;48.410;9.054;2023-02-02T03:52:33;96931.47;;;4.67;100.00
2397;BME280;1209;48.410;9.054;2023-02-02T03:54:59;96939.09;;;4.68;100.00
2397;BME280;1209;48.410;9.054;2023-02-02T03:57:26;96934.75;;;4.69;100.00
2397;BME280;1209;48.410;9.054;2023-02-02T03:59:51;96941.09;;;4.76;100.00
2397;BME280;1209;48.410;9.054;2023-02-02T04:02:18;96937.00;;;4.73;100.00
2397;BME280;1209;48.410;9.054;2023-02-02T04:04:44;96942.25;;;4.83;100.00
2397;BME280;1209;48.410;9.054;2023-02-02T04:07:09;96950.84;;;4.84;100.00
2397;BME280;1209;48.410;9.054;2023-02-02T04:09:36;96950.59;;;4.87;100.00
2397;BME280;1209;48.410;9.054;2023-02-02T04:12:01;96955.19;;;4.83;100.00
2397;BME280;1209;48.410;9.054;2023-02-02T04:14:27;96955.06;;;4.85;100.00
2397;BME280;1209;48.410;9.054;2023-02-02T04:16:53;96967.31;;;4.83;100.00
2397;BME280;1209;48.410;9.054;2023-02-02T04:19:20;96957.78;;;4.83;100.00
2397;BME280;1209;48.410;9.054;2023-02-02T04:21:45;96953.44;;;4.84;100.00
2397;BME280;1209;48.410;9.054;2023-02-02T04:24:12;96964.34;;;4.87;100.00
2397;BME280;1209;48.410;9.054;2023-02-02T04:26:38;96964.81;;;4.92;100.00
2397;BME280;1209;48.410;9.054;2023-02-02T04:29:04;96966.34;;;4.95;100.00
2397;BME280;1209;48.410;9.054;2023-02-02T04:31:30;96968.59;;;4.88;100.00
2397;BME280;1209;48.410;9.054;2023-02-02T04:33:56;96963.66;;;4.85;100.00
2397;BME280;1209;48.410;9.054;2023-02-02T04:36:21;96976.09;;;4.91;100.00
2397;BME280;1209;48.410;9.054;2023-02-02T04:38:51;96970.81;;;4.93;100.00
2397;BME280;1209;48.410;9.054;2023-02-02T04:41:17;96976.22;;;4.90;100.00
2397;BME280;1209;48.410;9.054;2023-02-02T04:43:43;96971.88;;;4.90;100.00
2397;BME280;1209;48.410;9.054;2023-02-02T04:46:08;96974.59;;;4.89;100.00
2397;BME280;1209;48.410;9.054;2023-02-02T04:48:34;96974.47;;;4.90;100.00
2397;BME280;1209;48.410;9.054;2023-02-02T04:51:01;96974.34;;;4.92;100.00
2397;BME280;1209;48.410;9.054;2023-02-02T04:53:29;96973.63;;;4.90;100.00
2397;BME280;1209;48.410;9.054;2023-02-02T04:55:54;96973.50;;;4.91;100.00
2397;BME280;1209;48.410;9.054;2023-02-02T04:58:21;96982.91;;;4.92;100.00
2397;BME280;1209;48.410;9.054;2023-02-02T05:00:47;96994.91;;;4.93;100.00
2397;BME280;1209;48.410;9.054;2023-02-02T05:03:12;96994.34;;;4.90;100.00
2397;BME280;1209;48.410;9.054;2023-02-02T05:05:38;96992.09;;;4.96;100.00
2397;BME280;1209;48.410;9.054;2023-02-02T05:08:03;96976.09;;;4.91;100.00
2397;BME280;1209;48.410;9.054;2023-02-02T05:10:29;96974.47;;;4.90;100.00
2397;BME280;1209;48.410;9.054;2023-02-02T05:12:54;96969.28;;;4.90;100.00
2397;BME280;1209;48.410;9.054;2023-02-02T05:15:21;96969.88;;;4.94;100.00
2397;BME280;1209;48.410;9.054;2023-02-02T05:17:47;96970.69;;;4.94;100.00
2397;BME280;1209;48.410;9.054;2023-02-02T05:20:14;96966.94;;;4.87;100.00
2397;BME280;1209;48.410;9.054;2023-02-02T05:22:40;96975.19;;;4.81;100.00
2397;BME280;1209;48.410;9.054;2023-02-02T05:25:06;96972.25;;;4.86;100.00
2397;BME280;1209;48.410;9.054;2023-02-02T05:27:32;96984.13;;;4.88;100.00
2397;BME280;1209;48.410;9.054;2023-02-02T05:29:57;96976.94;;;4.92;100.00
2397;BME280;1209;48.410;9.054;2023-02-02T05:32:23;96980.00;;;4.86;100.00
2397;BME280;1209;48.410;9.054;2023-02-02T05:34:49;96976.47;;;4.87;100.00
2397;BME280;1209;48.410;9.054;2023-02-02T05:37:14;96979.75;;;4.89;100.00
2397;BME280;1209;48.410;9.054;2023-02-02T05:39:40;96983.28;;;4.88;100.00
2397;BME280;1209;48.410;9.054;2023-02-02T05:42:05;96983.03;;;4.91;100.00
2397;BME280;1209;48.410;9.054;2023-02-02T05:44:30;96982.22;;;4.90;100.00
2397;BME280;1209;48.410;9.054;2023-02-02T05:46:57;96984.69;;;4.92;100.00
2397;BME280;1209;48.410;9.054;2023-02-02T05:49:22;96987.84;;;4.95;100.00
2397;BME280;1209;48.410;9.054;2023-02-02T05:51:51;96989.50;;;4.96;100.00
2397;BME280;1209;48.410;9.054;2023-02-02T05:54:18;96995.38;;;4.98;100.00
2397;BME280;1209;48.410;9.054;2023-02-02T05:56:49;96987.84;;;4.95;100.00
2397;BME280;1209;48.410;9.054;2023-02-02T05:59:15;96990.66;;;5.03;100.00
2397;BME280;1209;48.410;9.054;2023-02-02T06:01:42;96993.72;;;4.97;100.00
2397;BME280;1209;48.410;9.054;2023-02-02T06:04:07;97004.66;;;5.01;100.00
2397;BME280;1209;48.410;9.054;2023-02-02T06:06:33;97001.25;;;5.00;100.00
2397;BME280;1209;48.410;9.054;2023-02-02T06:09:00;97000.19;;;5.03;100.00
2397;BME280;1209;48.410;9.054;2023-02-02T06:11:25;97001.81;;;5.04;100.00
2397;BME280;1209;48.410;9.054;2023-02-02T06:13:51;96999.28;;;4.93;100.00
2397;BME280;1209;48.410;9.054;2023-02-02T06:16:16;97005.94;;;5.06;100.00
2397;BME280;1209;48.410;9.054;2023-02-02T06:18:41;97011.72;;;4.99;100.00
2397;BME280;1209;48.410;9.054;2023-02-02T06:21:07;97001.59;;;5.07;100.00
2397;BME280;1209;48.410;9.054;2023-02-02T06:23:33;96999.34;;;5.02;100.00
2397;BME280;1209;48.410;9.054;2023-02-02T06:25:58;97002.31;;;4.98;100.00
2397;BME280;1209;48.410;9.054;2023-02-02T06:28:24;97015.25;;;4.98;100.00
2397;BME280;1209;48.410;9.054;2023-02-02T06:30:50;97011.97;;;4.96;100.00
2397;BME280;1209;48.410;9.054;2023-02-02T06:33:15;97012.66;;;4.98;100.00
2397;BME280;1209;48.410;9.054;2023-02-02T06:35:40;97017.22;;;5.05;100.00
2397;BME280;1209;48.410;9.054;2023-02-02T06:38:06;97026.19;;;5.01;100.00
2397;BME280;1209;48.410;9.054;2023-02-02T06:40:31;97016.06;;;4.98;100.00
2397;BME280;1209;48.410;9.054;2023-02-02T06:42:57;97021.94;;;5.00;100.00
2397;BME280;1209;48.410;9.054;2023-02-02T06:45:24;97017.47;;;5.02;100.00
2397;BME280;1209;48.410;9.054;2023-02-02T06:47:49;97031.03;;;4.95;100.00
2397;BME280;1209;48.410;9.054;2023-02-02T06:50:15;97039.63;;;4.95;100.00
2397;BME280;1209;48.410;9.054;2023-02-02T06:52:49;97036.06;;;4.96;100.00
2397;BME280;1209;48.410;9.054;2023-02-02T06:55:15;97044.19;;;5.03;100.00
2397;BME280;1209;48.410;9.054;2023-02-02T06:57:41;97040.41;;;5.07;100.00
2397;BME280;1209;48.410;9.054;2023-02-02T07:00:07;97043.16;;;4.94;100.00
2397;BME280;1209;48.410;9.054;2023-02-02T07:02:32;97042.91;;;4.97;100.00
2397;BME280;1209;48.410;9.054;2023-02-02T07:04:57;97049.34;;;5.03;100.00
2397;BME280;1209;48.410;9.054;2023-02-02T07:07:23;97053.47;;;5.05;100.00
2397;BME280;1209;48.410;9.054;2023-02-02T07:09:48;97050.19;;;5.03;100.00
2397;BME280;1209;48.410;9.054;2023-02-02T07:12:13;97045.69;;;5.05;100.00
2397;BME280;1209;48.410;9.054;2023-02-02T07:14:38;97045.25;;;5.00;100.00
2397;BME280;1209;48.410;9.054;2023-02-02T07:17:04;97039.59;;;5.06;100.00
2397;BME280;1209;48.410;9.054;2023-02-02T07:19:30;97040.19;;;4.99;100.00
2397;BME280;1209;48.410;9.054;2023-02-02T07:21:55;97033.34;;;5.09;100.00
2397;BME280;1209;48.410;9.054;2023-02-02T07:24:21;97038.75;;;5.06;100.00
2397;BME280;1209;48.410;9.054;2023-02-02T07:26:46;97039.47;;;5.08;100.00
2397;BME280;1209;48.410;9.054;2023-02-02T07:29:12;97029.59;;;5.02;100.00
2397;BME280;1209;48.410;9.054;2023-02-02T07:31:38;97040.06;;;5.00;100.00
2397;BME280;1209;48.410;9.054;2023-02-02T07:34:03;97033.25;;;4.99;100.00
2397;BME280;1209;48.410;9.054;2023-02-02T07:36:28;97037.84;;;4.96;100.00
2397;BME280;1209;48.410;9.054;2023-02-02T07:38:54;97039.25;;;5.00;100.00
2397;BME280;1209;48.410;9.054;2023-02-02T07:41:20;97043.03;;;4.96;100.00
2397;BME280;1209;48.410;9.054;2023-02-02T07:43:46;97032.91;;;4.93;100.00
2397;BME280;1209;48.410;9.054;2023-02-02T07:46:14;97040.91;;;4.90;100.00
2397;BME280;1209;48.410;9.054;2023-02-02T07:48:39;97043.63;;;4.88;100.00
2397;BME280;1209;48.410;9.054;2023-02-02T07:51:07;97043.63;;;4.88;100.00
2397;BME280;1209;48.410;9.054;2023-02-02T07:53:33;97052.09;;;4.90;100.00
2397;BME280;1209;48.410;9.054;2023-02-02T07:56:13;97048.31;;;4.94;100.00
2397;BME280;1209;48.410;9.054;2023-02-02T07:58:40;97053.13;;;4.99;100.00
2397;BME280;1209;48.410;9.054;2023-02-02T08:01:08;97060.78;;;4.89;100.00
2397;BME280;1209;48.410;9.054;2023-02-02T08:03:35;97061.75;;;4.88;100.00
2397;BME280;1209;48.410;9.054;2023-02-02T08:06:08;97058.34;;;4.88;100.00
2397;BME280;1209;48.410;9.054;2023-02-02T08:08:33;97064.66;;;4.95;100.00
2397;BME280;1209;48.410;9.054;2023-02-02T08:10:59;97051.84;;;4.93;100.00
2397;BME280;1209;48.410;9.054;2023-02-02T08:13:24;97064.53;;;4.96;100.00
2397;BME280;1209;48.410;9.054;2023-02-02T08:15:50;97055.84;;;4.97;100.00
2397;BME280;1209;48.410;9.054;2023-02-02T08:18:15;97067.00;;;4.98;100.00
2397;BME280;1209;48.410;9.054;2023-02-02T08:20:41;97068.66;;;4.99;100.00
2397;BME280;1209;48.410;9.054;2023-02-02T08:23:07;97051.16;;;4.91;100.00
2397;BME280;1209;48.410;9.054;2023-02-02T08:25:38;97064.44;;;4.98;100.00
2397;BME280;1209;48.410;9.054;2023-02-02T08:28:04;97065.25;;;4.98;100.00
2397;BME280;1209;48.410;9.054;2023-02-02T08:30:30;97068.66;;;4.99;100.00
2397;BME280;1209;48.410;9.054;2023-02-02T08:32:55;97076.06;;;5.03;100.00
2397;BME280;1209;48.410;9.054;2023-02-02T08:35:21;97083.59;;;5.06;100.00
2397;BME280;1209;48.410;9.054;2023-02-02T08:37:48;97072.03;;;5.11;100.00
2397;BME280;1209;48.410;9.054;2023-02-02T08:40:13;97074.84;;;5.19;100.00
2397;BME280;1209;48.410;9.054;2023-02-02T08:42:38;97069.59;;;5.20;100.00
2397;BME280;1209;48.410;9.054;2023-02-02T08:45:04;97064.50;;;5.19;100.00
2397;BME280;1209;48.410;9.054;2023-02-02T08:47:30;97067.56;;;5.24;100.00
2397;BME280;1209;48.410;9.054;2023-02-02T08:49:55;97073.69;;;5.23;100.00
2397;BME280;1209;48.410;9.054;2023-02-02T08:52:20;97072.63;;;5.25;100.00
2397;BME280;1209;48.410;9.054;2023-02-02T08:54:46;97076.94;;;5.36;100.00
2397;BME280;1209;48.410;9.054;2023-02-02T08:57:11;97088.81;;;5.38;100.00
2397;BME280;1209;48.410;9.054;2023-02-02T08:59:36;97095.19;;;5.34;100.00
2397;BME280;1209;48.410;9.054;2023-02-02T09:02:02;97102.59;;;5.39;100.00
2397;BME280;1209;48.410;9.054;2023-02-02T09:04:27;97101.81;;;5.27;100.00
2397;BME280;1209;48.410;9.054;2023-02-02T09:06:52;97100.25;;;5.36;100.00
2397;BME280;1209;48.410;9.054;2023-02-02T09:09:18;97098.69;;;5.45;100.00
2397;BME280;1209;48.410;9.054;2023-02-02T09:11:43;97108.97;;;5.35;100.00
2397;BME280;1209;48.410;9.054;2023-02-02T09:14:09;97107.31;;;5.34;100.00
2397;BME280;1209;48.410;9.054;2023-02-02T09:16:36;97108.84;;;5.36;100.00
2397;BME280;1209;48.410;9.054;2023-02-02T09:19:02;97125.13;;;5.27;100.00
2397;BME280;1209;48.410;9.054;2023-02-02T09:21:27;97136.16;;;5.29;100.00
2397;BME280;1209;48.410;9.054;2023-02-02T09:23:53;97134.16;;;5.33;100.00
2397;BME280;1209;48.410;9.054;2023-02-02T09:26:28;97141.56;;;5.37;100.00
2397;BME280;1209;48.410;9.054;2023-02-02T09:29:02;97145.69;;;5.40;100.00
2397;BME280;1209;48.410;9.054;2023-02-02T09:31:30;97150.03;;;5.40;100.00
2397;BME280;1209;48.410;9.054;2023-02-02T09:34:02;97150.72;;;5.53;100.00
2397;BME280;1209;48.410;9.054;2023-02-02T09:36:30;97146.59;;;5.50;100.00
2397;BME280;1209;48.410;9.054;2023-02-02T09:38:56;97135.09;;;5.43;100.00
2397;BME280;1209;48.410;9.054;2023-02-02T09:44:32;97140.72;;;5.48;100.00
2397;BME280;1209;48.410;9.054;2023-02-02T09:47:09;97146.59;;;5.50;100.00
2397;BME280;1209;48.410;9.054;2023-02-02T09:52:23;97160.84;;;5.45;100.00
2397;BME280;1209;48.410;9.054;2023-02-02T09:54:51;97151.09;;;5.37;100.00
2397;BME280;1209;48.410;9.054;2023-02-02T09:57:24;97150.97;;;5.38;100.00
2397;BME280;1209;48.410;9.054;2023-02-02T09:59:51;97153.69;;;5.37;100.00
2397;BME280;1209;48.410;9.054;2023-02-02T10:02:30;97160.97;;;5.43;100.00
2397;BME280;1209;48.410;9.054;2023-02-02T10:05:18;97160.75;;;5.46;100.00
2397;BME280;1209;48.410;9.054;2023-02-02T10:07:50;97157.72;;;5.30;100.00
2397;BME280;1209;48.410;9.054;2023-02-02T10:10:21;97158.63;;;5.40;100.00
2397;BME280;1209;48.410;9.054;2023-02-02T10:12:56;97160.50;;;5.49;100.00
2397;BME280;1209;48.410;9.054;2023-02-02T10:15:49;97166.41;;;5.40;100.00
2397;BME280;1209;48.410;9.054;2023-02-02T10:18:28;97163.09;;;5.49;100.00
2397;BME280;1209;48.410;9.054;2023-02-02T10:20:59;97158.88;;;5.37;100.00
2397;BME280;1209;48.410;9.054;2023-02-02T10:23:35;97164.63;;;5.41;100.00
2397;BME280;1209;48.410;9.054;2023-02-02T10:34:42;97150.16;;;5.38;100.00
2397;BME280;1209;48.410;9.054;2023-02-02T10:37:37;97154.97;;;5.43;100.00
2397;BME280;1209;48.410;9.054;2023-02-02T10:40:14;97167.56;;;5.47;100.00
2397;BME280;1209;48.410;9.054;2023-02-02T10:45:40;97164.03;;;5.48;100.00
2397;BME280;1209;48.410;9.054;2023-02-02T10:48:15;97157.66;;;5.52;100.00
2397;BME280;1209;48.410;9.054;2023-02-02T10:50:42;97153.97;;;5.66;100.00
2397;BME280;1209;48.410;9.054;2023-02-02T10:53:12;97148.44;;;5.71;100.00
2397;BME280;1209;48.410;9.054;2023-02-02T10:55:44;97139.16;;;5.68;100.00
2397;BME280;1209;48.410;9.054;2023-02-02T10:58:14;97148.91;;;5.64;100.00
2397;BME280;1209;48.410;9.054;2023-02-02T11:00:53;97149.03;;;5.63;100.00
2397;BME280;1209;48.410;9.054;2023-02-02T11:03:30;97161.16;;;5.74;100.00
2397;BME280;1209;48.410;9.054;2023-02-02T11:05:58;97163.63;;;5.75;100.00
2397;BME280;1209;48.410;9.054;2023-02-02T11:08:44;97171.38;;;5.86;100.00
2397;BME280;1209;48.410;9.054;2023-02-02T11:11:29;97183.75;;;5.94;100.00
2397;BME280;1209;48.410;9.054;2023-02-02T11:16:32;97187.75;;;5.87;100.00
2397;BME280;1209;48.410;9.054;2023-02-02T11:18:58;97167.41;;;5.71;100.00
2397;BME280;1209;48.410;9.054;2023-02-02T11:21:30;97167.81;;;5.87;100.00
2397;BME280;1209;48.410;9.054;2023-02-02T11:24:00;97176.53;;;5.97;100.00
2397;BME280;1209;48.410;9.054;2023-02-02T11:29:39;97173.25;;;5.95;100.00
2397;BME280;1209;48.410;9.054;2023-02-02T11:37:26;97165.59;;;5.94;100.00
2397;BME280;1209;48.410;9.054;2023-02-02T11:39:52;97163.81;;;5.94;100.00
2397;BME280;1209;48.410;9.054;2023-02-02T11:42:20;97169.72;;;5.85;100.00
2397;BME280;1209;48.410;9.054;2023-02-02T11:44:53;97173.25;;;5.95;100.00
2397;BME280;1209;48.410;9.054;2023-02-02T11:47:29;97160.88;;;5.99;100.00
2397;BME280;1209;48.410;9.054;2023-02-02T11:49:56;97167.38;;;5.93;100.00
2397;BME280;1209;48.410;9.054;2023-02-02T11:52:25;97169.38;;;5.90;100.00
2397;BME280;1209;48.410;9.054;2023-02-02T11:54:56;97161.25;;;5.83;100.00
2397;BME280;1209;48.410;9.054;2023-02-02T11:57:24;97162.06;;;5.84;100.00
2397;BME280;1209;48.410;9.054;2023-02-02T12:00:04;97163.13;;;5.81;100.00
2397;BME280;1209;48.410;9.054;2023-02-02T12:02:31;97159.34;;;5.85;100.00
2397;BME280;1209;48.410;9.054;2023-02-02T12:07:42;97152.44;;;5.75;100.00
2397;BME280;1209;48.410;9.054;2023-02-02T12:10:28;97165.03;;;5.90;100.00
2397;BME280;1209;48.410;9.054;2023-02-02T12:16:27;97172.88;;;5.89;100.00
2397;BME280;1209;48.410;9.054;2023-02-02T12:22:07;97151.94;;;5.92;100.00
2397;BME280;1209;48.410;9.054;2023-02-02T12:24:55;97150.63;;;5.97;100.00
2397;BME280;1209;48.410;9.054;2023-02-02T12:30:22;97155.34;;;5.92;100.00
2397;BME280;1209;48.410;9.054;2023-02-02T12:33:12;97160.88;;;5.99;100.00
2397;BME280;1209;48.410;9.054;2023-02-02T12:47:41;97151.34;;;5.88;100.00
2397;BME280;1209;48.410;9.054;2023-02-02T12:50:23;97155.44;;;6.02;100.00
2397;BME280;1209;48.410;9.054;2023-02-02T12:53:04;97154.59;;;6.02;100.00
2397;BME280;1209;48.410;9.054;2023-02-02T12:55:59;97156.50;;;5.88;100.00
2397;BME280;1209;48.410;9.054;2023-02-02T12:59:09;97152.38;;;5.97;100.00
2397;BME280;1209;48.410;9.054;2023-02-02T13:07:05;97164.28;;;5.88;100.00
2397;BME280;1209;48.410;9.054;2023-02-02T13:12:10;97148.66;;;5.90;100.00
2397;BME280;1209;48.410;9.054;2023-02-02T13:14:43;97155.47;;;5.91;100.00
2397;BME280;1209;48.410;9.054;2023-02-02T13:17:31;97153.59;;;5.93;100.00
2397;BME280;1209;48.410;9.054;2023-02-02T13:20:02;97155.22;;;5.94;100.00
2397;BME280;1209;48.410;9.054;2023-02-02T13:22:40;97156.88;;;5.95;100.00
2397;BME280;1209;48.410;9.054;2023-02-02T13:25:12;97151.31;;;5.99;100.00
2397;BME280;1209;48.410;9.054;2023-02-02T13:27:40;97169.09;;;6.04;100.00
2397;BME280;1209;48.410;9.054;2023-02-02T13:30:16;97167.31;;;6.05;100.00
2397;BME280;1209;48.410;9.054;2023-02-02T13:32:45;97154.16;;;5.96;100.00
2397;BME280;1209;48.410;9.054;2023-02-02T13:35:24;97159.34;;;5.96;100.00
2397;BME280;1209;48.410;9.054;2023-02-02T13:40:42;97160.13;;;6.08;100.00
2397;BME280;1209;48.410;9.054;2023-02-02T13:51:43;97172.09;;;6.20;100.00
2397;BME280;1209;48.410;9.054;2023-02-02T14:00:17;97178.63;;;6.04;100.00
2397;BME280;1209;48.410;9.054;2023-02-02T14:02:46;97178.50;;;6.05;100.00
2397;BME280;1209;48.410;9.054;2023-02-02T14:05:37;97183.50;;;5.97;100.00
2397;BME280;1209;48.410;9.054;2023-02-02T14:08:18;97185.22;;;6.08;100.00
2397;BME280;1209;48.410;9.054;2023-02-02T14:13:31;97207.84;;;6.06;100.00
2397;BME280;1209;48.410;9.054;2023-02-02T14:16:40;97202.34;;;5.99;100.00
2397;BME280;1209;48.410;9.054;2023-02-02T14:24:39;97212.50;;;5.91;100.00
2397;BME280;1209;48.410;9.054;2023-02-02T14:29:34;97214.97;;;5.92;100.00
2397;BME280;1209;48.410;9.054;2023-02-02T14:34:55;97208.72;;;5.84;100.00
2397;BME280;1209;48.410;9.054;2023-02-02T14:45:44;97224.84;;;5.98;100.00
2397;BME280;1209;48.410;9.054;2023-02-02T14:48:15;97227.31;;;5.89;100.00
2397;BME280;1209;48.410;9.054;2023-02-02T14:53:33;97231.69;;;5.88;100.00
2397;BME280;1209;48.410;9.054;2023-02-02T14:56:14;97241.97;;;5.90;100.00
2397;BME280;1209;48.410;9.054;2023-02-02T15:17:10;97244.31;;;5.71;100.00
2397;BME280;1209;48.410;9.054;2023-02-02T15:19:44;97249.25;;;5.62;100.00
2397;BME280;1209;48.410;9.054;2023-02-02T15:22:36;97245.97;;;5.72;100.00
2397;BME280;1209;48.410;9.054;2023-02-02T15:25:16;97253.50;;;5.75;100.00
2397;BME280;1209;48.410;9.054;2023-02-02T15:27:49;97252.69;;;5.74;100.00
2397;BME280;1209;48.410;9.054;2023-02-02T15:30:16;97251.03;;;5.62;100.00
2397;BME280;1209;48.410;9.054;2023-02-02T15:32:42;97254.44;;;5.74;100.00
2397;BME280;1209;48.410;9.054;2023-02-02T15:35:15;97260.09;;;5.79;100.00
2397;BME280;1209;48.410;9.054;2023-02-02T15:37:52;97251.16;;;5.72;100.00
2397;BME280;1209;48.410;9.054;2023-02-02T15:40:23;97249.72;;;5.67;100.00
2397;BME280;1209;48.410;9.054;2023-02-02T15:43:10;97265.75;;;5.73;100.00
2397;BME280;1209;48.410;9.054;2023-02-02T15:45:51;97258.69;;;5.75;100.00
2397;BME280;1209;48.410;9.054;2023-02-02T15:50:45;97268.59;;;5.69;100.00
2397;BME280;1209;48.410;9.054;2023-02-02T15:53:20;97263.16;;;5.73;100.00
2397;BME280;1209;48.410;9.054;2023-02-02T15:55:46;97271.06;;;5.71;100.00
2397;BME280;1209;48.410;9.054;2023-02-02T15:58:32;97262.22;;;5.62;100.00
2397;BME280;1209;48.410;9.054;2023-02-02T16:01:04;97263.28;;;5.71;100.00